Time;durP1;ratioP1;P1;durP2;ratioP2;P2;SDS_P1;SDS_P2;PMS_P1;PMS_P2;Temp;Humidity;BMP_temperature;BMP_pressure;BME280_temperature;BME280_humidity;BME280_pressure;Samples;Min_cycle;Max_cycle;Signal;HPM_P1;HPM_P2
2022/01/14 00:00:55;;;;;;;;;;;;;;;;;;5075027;28;20087;-67
2022/01/14 00:03:20;;;;;;;;;;;;;;;;;;5072969;28;19923;-67
2022/01/14 00:05:45;;;;;;;;;;;;;;;;;;5073903;28;20525;-67
2022/01/14 00:08:10;;;;;;;;;;;;;;;;;;5071301;28;20051;-67
2022/01/14 00:10:36;;;;;;;;;;;;;;;;;;5074902;28;20053;-67
2022/01/14 00:13:10;;;;;;;;;;;;;;;;;;5076479;28;19920;-67
2022/01/14 00:15:35;;;;;;;;;;;;;;;;;;5073117;28;20433;-67
2022/01/14 00:18:00;;;;;;;;;;;;;;;;;;5075111;28;19916;-67
2022/01/14 00:20:26;;;;;;;;;;;;;;;;;;5070912;28;20520;-67
2022/01/14 00:22:51;;;;;;;;;;;;;;;;;;5066117;28;19920;-67
2022/01/14 00:33:27;;;;;;;;;;;;;;;;;;5073844;28;19923;-67
2022/01/14 00:35:52;;;;;;;;;;;;;;;;;;5071999;28;19912;-67
2022/01/14 00:38:17;;;;;;;;;;;;;;;;;;5079364;28;19912;-67
2022/01/14 00:40:42;;;;;;;;;;;;;;;;;;5075309;28;19996;-67
2022/01/14 00:43:07;;;;;;;;;;;;;;;;;;5076050;28;19913;-67
2022/01/14 00:45:32;;;;;;;;;;;;;;;;;;5077834;28;19943;-67
2022/01/14 00:47:57;;;;;;;;;;;;;;;;;;5071288;28;20496;-67
2022/01/14 00:50:23;;;;;;;;;;;;;;;;;;5075705;28;20036;-67
2022/01/14 00:52:48;;;;;;;;;;;;;;;;;;5075157;28;19979;-67
2022/01/14 00:55:14;;;;;;;;;;;;;;;;;;5074347;28;19920;-67
2022/01/14 01:00:23;;;;;;;;;;;;;;;;;;5077201;28;20410;-67
2022/01/14 01:02:48;;;;;;;;;;;;;;;;;;5077126;28;19916;-67
2022/01/14 01:05:14;;;;;;;;;;;;;;;;;;5078488;28;19921;-67
2022/01/14 01:07:40;;;;;;;;;;;;;;;;;;5076679;28;19951;-67
2022/01/14 01:10:05;;;;;;;;;;;;;;;;;;5077659;28;19920;-67
2022/01/14 01:12:42;;;;;;;;;;;;;;;;;;5078492;28;20073;-67
2022/01/14 01:15:11;;;;;;;;;;;;;;;;;;5076665;28;20165;-67
2022/01/14 01:17:36;;;;;;;;;;;;;;;;;;5072286;28;20408;-67
2022/01/14 01:20:01;;;;;;;;;;;;;;;;;;5076906;28;20490;-67
2022/01/14 01:22:26;;;;;;;;;;;;;;;;;;5078857;28;19919;-67
2022/01/14 01:24:52;;;;;;;;;;;;;;;;;;5074073;28;19920;-67
2022/01/14 01:27:19;;;;;;;;;;;;;;;;;;5074657;28;20502;-67
2022/01/14 01:29:53;;;;;;;;;;;;;;;;;;5075548;28;19920;-67
2022/01/14 01:32:18;;;;;;;;;;;;;;;;;;5072036;28;20080;-67
2022/01/14 01:34:43;;;;;;;;;;;;;;;;;;5076945;28;19912;-67
2022/01/14 01:37:09;;;;;;;;;;;;;;;;;;5078359;28;19916;-67
2022/01/14 01:39:37;;;;;;;;;;;;;;;;;;5075121;28;19912;-67
2022/01/14 01:42:02;;;;;;;;;;;;;;;;;;5076274;28;20424;-67
2022/01/14 01:44:27;;;;;;;;;;;;;;;;;;5072542;28;19992;-67
2022/01/14 01:46:52;;;;;;;;;;;;;;;;;;5074762;28;19923;-67
2022/01/14 01:49:17;;;;;;;;;;;;;;;;;;5076894;28;20280;-67
2022/01/14 01:51:43;;;;;;;;;;;;;;;;;;5076216;28;20411;-67
2022/01/14 01:54:08;;;;;;;;;;;;;;;;;;5078961;28;20120;-67
2022/01/14 01:56:33;;;;;;;;;;;;;;;;;;5075426;28;20194;-67
2022/01/14 01:58:58;;;;;;;;;;;;;;;;;;5075964;28;20191;-67
2022/01/14 02:01:23;;;;;;;;;;;;;;;;;;5074502;28;19926;-67
2022/01/14 02:03:48;;;;;;;;;;;;;;;;;;5095130;22;19989;-66
2022/01/14 02:06:14;;;;;;;;;;;;;;;;;;5068544;28;20387;-66
2022/01/14 02:08:39;;;;;;;;;;;;;;;;;;5074087;28;20338;-66
2022/01/14 02:11:04;;;;;;;;;;;;;;;;;;5073718;28;20566;-66
2022/01/14 02:13:31;;;;;;;;;;;;;;;;;;5073982;28;20307;-67
2022/01/14 02:23:33;;;;;;;;;;;;;;;;;;5074239;28;20413;-66
2022/01/14 02:25:58;;;;;;;;;;;;;;;;;;5074115;28;19923;-66
2022/01/14 02:28:24;;;;;;;;;;;;;;;;;;5076103;28;19924;-66
2022/01/14 02:30:49;;;;;;;;;;;;;;;;;;5075295;28;19939;-66
2022/01/14 02:33:14;;;;;;;;;;;;;;;;;;5070884;28;20016;-66
2022/01/14 02:35:39;;;;;;;;;;;;;;;;;;5070849;28;19920;-66
2022/01/14 02:38:04;;;;;;;;;;;;;;;;;;5078827;28;19912;-66
2022/01/14 02:40:29;;;;;;;;;;;;;;;;;;5070305;28;19959;-66
2022/01/14 02:42:59;;;;;;;;;;;;;;;;;;5076329;28;19977;-66
2022/01/14 02:45:28;;;;;;;;;;;;;;;;;;5077088;28;19950;-66
2022/01/14 02:47:53;;;;;;;;;;;;;;;;;;5078757;28;19912;-66
2022/01/14 02:50:21;;;;;;;;;;;;;;;;;;5075553;28;19916;-66
2022/01/14 02:55:19;;;;;;;;;;;;;;;;;;5078886;28;19924;-66
2022/01/14 02:57:44;;;;;;;;;;;;;;;;;;5067571;28;19912;-66
2022/01/14 03:00:09;;;;;;;;;;;;;;;;;;5074228;28;21859;-66
2022/01/14 03:02:34;;;;;;;;;;;;;;;;;;5069973;28;19921;-66
2022/01/14 03:04:59;;;;;;;;;;;;;;;;;;5052190;28;19913;-66
2022/01/14 03:07:24;;;;;;;;;;;;;;;;;;5052790;28;19918;-66
2022/01/14 03:09:50;;;;;;;;;;;;;;;;;;5053135;28;19943;-70
2022/01/14 03:12:15;;;;;;;;;;;;;;;;;;5049467;28;20261;-70
2022/01/14 03:14:40;;;;;;;;;;;;;;;;;;5053463;28;19996;-70
2022/01/14 03:17:05;;;;;;;;;;;;;;;;;;5058283;28;19947;-70
2022/01/14 03:19:31;;;;;;;;;;;;;;;;;;5056505;28;20066;-70
2022/01/14 03:22:17;;;;;;;;;;;;;;;;;;5051734;28;19913;-70
2022/01/14 03:27:06;;;;;;;;;;;;;;;;;;5052662;28;20244;-70
2022/01/14 03:29:31;;;;;;;;;;;;;;;;;;5054734;28;20257;-70
2022/01/14 03:31:56;;;;;;;;;;;;;;;;;;5059188;28;20303;-70
2022/01/14 03:34:21;;;;;;;;;;;;;;;;;;5056639;28;20512;-70
2022/01/14 03:36:47;;;;;;;;;;;;;;;;;;5051959;28;19916;-70
2022/01/14 03:39:12;;;;;;;;;;;;;;;;;;5061560;28;20369;-70
2022/01/14 03:41:37;;;;;;;;;;;;;;;;;;5053849;28;19917;-70
2022/01/14 03:44:02;;;;;;;;;;;;;;;;;;5058896;28;20366;-70
2022/01/14 03:46:27;;;;;;;;;;;;;;;;;;5053386;28;20653;-70
2022/01/14 03:48:52;;;;;;;;;;;;;;;;;;5053041;28;20733;-70
2022/01/14 03:51:17;;;;;;;;;;;;;;;;;;5056900;28;19939;-70
2022/01/14 03:53:43;;;;;;;;;;;;;;;;;;5061486;28;20509;-70
2022/01/14 03:56:08;;;;;;;;;;;;;;;;;;5054020;28;19920;-68
2022/01/14 03:58:33;;;;;;;;;;;;;;;;;;5057695;28;19916;-67
2022/01/14 04:00:58;;;;;;;;;;;;;;;;;;5054505;28;19978;-67
2022/01/14 04:03:23;;;;;;;;;;;;;;;;;;5056011;28;19966;-67
2022/01/14 04:05:48;;;;;;;;;;;;;;;;;;5055099;28;19916;-67
2022/01/14 04:08:13;;;;;;;;;;;;;;;;;;5054079;28;19927;-68
2022/01/14 04:10:38;;;;;;;;;;;;;;;;;;5055501;28;19955;-67
2022/01/14 04:13:11;;;;;;;;;;;;;;;;;;5052077;28;19931;-68
2022/01/14 04:15:37;;;;;;;;;;;;;;;;;;5053629;28;19970;-68
2022/01/14 04:18:02;;;;;;;;;;;;;;;;;;5057431;28;19977;-67
2022/01/14 04:20:27;;;;;;;;;;;;;;;;;;5059918;28;19908;-67
2022/01/14 04:22:53;;;;;;;;;;;;;;;;;;5051091;28;19924;-67
2022/01/14 04:25:18;;;;;;;;;;;;;;;;;;5053847;28;19913;-67
2022/01/14 04:27:43;;;;;;;;;;;;;;;;;;5058396;28;19917;-67
2022/01/14 04:30:08;;;;;;;;;;;;;;;;;;5061644;28;19917;-67
2022/01/14 04:32:34;;;;;;;;;;;;;;;;;;5056025;28;19921;-67
2022/01/14 04:34:59;;;;;;;;;;;;;;;;;;5055183;28;19920;-67
2022/01/14 04:37:24;;;;;;;;;;;;;;;;;;5058808;28;19981;-67
2022/01/14 04:39:49;;;;;;;;;;;;;;;;;;5061609;28;19959;-67
2022/01/14 04:42:14;;;;;;;;;;;;;;;;;;5053974;28;19920;-67
2022/01/14 04:44:39;;;;;;;;;;;;;;;;;;5060606;28;19912;-68
2022/01/14 04:47:17;;;;;;;;;;;;;;;;;;5057331;28;20390;-67
2022/01/14 04:49:42;;;;;;;;;;;;;;;;;;5059176;28;20090;-67
2022/01/14 04:52:08;;;;;;;;;;;;;;;;;;5054435;28;19995;-68
2022/01/14 04:54:33;;;;;;;;;;;;;;;;;;5050021;28;20414;-67
2022/01/14 04:56:58;;;;;;;;;;;;;;;;;;5053422;28;19924;-68
2022/01/14 04:59:23;;;;;;;;;;;;;;;;;;5062121;28;20388;-67
2022/01/14 05:01:49;;;;;;;;;;;;;;;;;;5052280;28;19912;-67
2022/01/14 05:04:14;;;;;;;;;;;;;;;;;;5059717;28;19920;-67
2022/01/14 05:06:42;;;;;;;;;;;;;;;;;;5055812;28;19913;-67
2022/01/14 05:09:18;;;;;;;;;;;;;;;;;;5050256;28;19945;-67
2022/01/14 05:11:51;;;;;;;;;;;;;;;;;;5055538;28;19932;-67
2022/01/14 05:14:16;;;;;;;;;;;;;;;;;;5055205;28;20016;-67
2022/01/14 05:16:42;;;;;;;;;;;;;;;;;;5052185;28;20007;-67
2022/01/14 05:19:07;;;;;;;;;;;;;;;;;;5056649;28;20021;-67
2022/01/14 05:21:32;;;;;;;;;;;;;;;;;;5059148;28;19987;-67
2022/01/14 05:23:57;;;;;;;;;;;;;;;;;;5049016;28;19995;-67
2022/01/14 05:26:22;;;;;;;;;;;;;;;;;;5050072;28;19913;-68
2022/01/14 05:28:47;;;;;;;;;;;;;;;;;;5047596;28;20004;-67
2022/01/14 05:31:12;;;;;;;;;;;;;;;;;;5055144;28;20002;-68
2022/01/14 05:33:41;;;;;;;;;;;;;;;;;;5054697;28;19975;-67
2022/01/14 05:36:06;;;;;;;;;;;;;;;;;;5052559;28;19917;-67
2022/01/14 05:38:31;;;;;;;;;;;;;;;;;;5051100;28;19938;-68
2022/01/14 05:40:56;;;;;;;;;;;;;;;;;;5056355;28;19920;-67
2022/01/14 05:43:21;;;;;;;;;;;;;;;;;;5052703;28;19913;-67
2022/01/14 05:45:46;;;;;;;;;;;;;;;;;;5052912;28;19951;-67
2022/01/14 05:48:11;;;;;;;;;;;;;;;;;;5053253;28;19998;-67
2022/01/14 05:50:37;;;;;;;;;;;;;;;;;;5054403;28;19909;-67
2022/01/14 05:53:02;;;;;;;;;;;;;;;;;;5056499;28;19920;-67
2022/01/14 05:55:27;;;;;;;;;;;;;;;;;;5058367;28;19927;-68
2022/01/14 05:57:52;;;;;;;;;;;;;;;;;;5055527;28;19917;-67
2022/01/14 06:00:17;;;;;;;;;;;;;;;;;;5050235;28;19960;-67
2022/01/14 06:02:42;;;;;;;;;;;;;;;;;;5053957;28;19917;-67
2022/01/14 06:05:07;;;;;;;;;;;;;;;;;;5059586;28;19913;-67
2022/01/14 06:07:33;;;;;;;;;;;;;;;;;;5059788;28;20074;-67
2022/01/14 06:09:58;;;;;;;;;;;;;;;;;;5055404;28;19932;-67
2022/01/14 06:12:23;;;;;;;;;;;;;;;;;;5053677;28;19912;-67
2022/01/14 06:14:48;;;;;;;;;;;;;;;;;;5052528;28;19919;-67
2022/01/14 06:17:13;;;;;;;;;;;;;;;;;;5055100;28;19962;-67
2022/01/14 06:19:38;;;;;;;;;;;;;;;;;;5049311;28;19913;-67
2022/01/14 06:22:03;;;;;;;;;;;;;;;;;;5049093;28;19955;-67
2022/01/14 06:24:29;;;;;;;;;;;;;;;;;;5057581;28;20378;-67
2022/01/14 06:26:54;;;;;;;;;;;;;;;;;;5044634;28;19983;-67
2022/01/14 06:29:19;;;;;;;;;;;;;;;;;;5051396;28;20500;-67
2022/01/14 06:31:44;;;;;;;;;;;;;;;;;;5045887;28;19916;-67
2022/01/14 06:34:09;;;;;;;;;;;;;;;;;;5055892;28;19916;-67
2022/01/14 06:36:34;;;;;;;;;;;;;;;;;;5055959;28;19956;-67
2022/01/14 06:38:59;;;;;;;;;;;;;;;;;;5051698;28;19912;-67
2022/01/14 06:41:24;;;;;;;;;;;;;;;;;;5053302;28;19916;-67
2022/01/14 06:43:50;;;;;;;;;;;;;;;;;;5049173;28;19958;-67
2022/01/14 06:46:15;;;;;;;;;;;;;;;;;;5053964;28;20564;-67
2022/01/14 06:48:40;;;;;;;;;;;;;;;;;;5053480;28;20376;-67
2022/01/14 06:51:05;;;;;;;;;;;;;;;;;;5056294;28;20354;-67
2022/01/14 06:53:30;;;;;;;;;;;;;;;;;;5048520;28;19956;-67
2022/01/14 06:55:55;;;;;;;;;;;;;;;;;;5051817;28;20449;-67
2022/01/14 06:58:20;;;;;;;;;;;;;;;;;;5049836;28;19913;-67
2022/01/14 07:00:45;;;;;;;;;;;;;;;;;;5047079;28;19917;-67
2022/01/14 07:03:11;;;;;;;;;;;;;;;;;;5053095;28;19920;-67
2022/01/14 07:05:36;;;;;;;;;;;;;;;;;;5049512;28;19919;-67
2022/01/14 07:08:01;;;;;;;;;;;;;;;;;;5044400;28;20317;-67
2022/01/14 07:10:26;;;;;;;;;;;;;;;;;;5049821;28;19956;-67
2022/01/14 07:12:51;;;;;;;;;;;;;;;;;;5042385;28;19909;-67
2022/01/14 07:15:17;;;;;;;;;;;;;;;;;;5063112;28;20091;-67
2022/01/14 07:17:42;;;;;;;;;;;;;;;;;;5062201;28;19973;-67
2022/01/14 07:20:10;;;;;;;;;;;;;;;;;;5056044;28;19908;-67
2022/01/14 07:22:36;;;;;;;;;;;;;;;;;;5045290;28;20456;-67
2022/01/14 07:25:01;;;;;;;;;;;;;;;;;;5059875;28;20441;-67
2022/01/14 07:27:27;;;;;;;;;;;;;;;;;;5048258;28;19913;-68
2022/01/14 07:29:52;;;;;;;;;;;;;;;;;;5058538;28;19913;-67
2022/01/14 07:32:17;;;;;;;;;;;;;;;;;;5048608;28;19919;-67
2022/01/14 07:34:42;;;;;;;;;;;;;;;;;;5054528;28;19920;-67
2022/01/14 07:37:07;;;;;;;;;;;;;;;;;;5057516;28;20458;-67
2022/01/14 07:39:33;;;;;;;;;;;;;;;;;;5064595;28;19931;-67
2022/01/14 07:41:58;;;;;;;;;;;;;;;;;;5047134;28;19920;-67
2022/01/14 07:44:23;;;;;;;;;;;;;;;;;;5055745;28;19913;-67
2022/01/14 07:46:48;;;;;;;;;;;;;;;;;;5049355;28;19912;-67
2022/01/14 07:49:13;;;;;;;;;;;;;;;;;;5066111;28;20065;-67
2022/01/14 07:51:39;;;;;;;;;;;;;;;;;;5034263;28;19920;-67
2022/01/14 07:54:07;;;;;;;;;;;;;;;;;;5059307;28;20379;-67
2022/01/14 07:56:32;;;;;;;;;;;;;;;;;;5056504;28;19921;-67
2022/01/14 07:58:57;;;;;;;;;;;;;;;;;;5058568;28;19924;-68
2022/01/14 08:01:22;;;;;;;;;;;;;;;;;;5053073;28;19962;-67
2022/01/14 08:03:47;;;;;;;;;;;;;;;;;;5060696;28;19978;-67
2022/01/14 08:06:13;;;;;;;;;;;;;;;;;;5050603;28;19908;-67
2022/01/14 08:08:39;;;;;;;;;;;;;;;;;;5053302;28;19940;-67
2022/01/14 08:11:05;;;;;;;;;;;;;;;;;;5062328;28;20419;-67
2022/01/14 08:13:30;;;;;;;;;;;;;;;;;;5063195;28;19962;-67
2022/01/14 08:15:55;;;;;;;;;;;;;;;;;;5050022;28;19913;-67
2022/01/14 08:18:20;;;;;;;;;;;;;;;;;;5053069;28;20338;-67
2022/01/14 08:20:45;;;;;;;;;;;;;;;;;;5044788;28;20011;-67
2022/01/14 08:23:11;;;;;;;;;;;;;;;;;;5052539;28;19967;-67
2022/01/14 08:25:36;;;;;;;;;;;;;;;;;;5053058;28;19916;-67
2022/01/14 08:28:01;;;;;;;;;;;;;;;;;;5048347;28;19913;-67
2022/01/14 08:30:26;;;;;;;;;;;;;;;;;;5046791;28;19917;-67
2022/01/14 08:32:51;;;;;;;;;;;;;;;;;;5043913;28;19920;-67
2022/01/14 08:35:16;;;;;;;;;;;;;;;;;;5053872;28;20062;-67
2022/01/14 08:37:41;;;;;;;;;;;;;;;;;;5047809;28;19948;-67
2022/01/14 08:40:07;;;;;;;;;;;;;;;;;;5057860;28;20368;-67
2022/01/14 08:42:32;;;;;;;;;;;;;;;;;;5044976;28;19987;-67
2022/01/14 08:44:57;;;;;;;;;;;;;;;;;;5062454;28;20275;-67
2022/01/14 08:47:22;;;;;;;;;;;;;;;;;;5047474;28;19952;-67
2022/01/14 08:49:47;;;;;;;;;;;;;;;;;;5062044;28;19925;-67
2022/01/14 08:52:12;;;;;;;;;;;;;;;;;;5046813;28;20609;-67
2022/01/14 08:54:37;;;;;;;;;;;;;;;;;;5049955;28;19913;-67
2022/01/14 08:57:03;;;;;;;;;;;;;;;;;;5047908;28;19916;-67
2022/01/14 08:59:28;;;;;;;;;;;;;;;;;;5066504;28;19912;-67
2022/01/14 09:01:53;;;;;;;;;;;;;;;;;;5048736;28;20583;-67
2022/01/14 09:04:18;;;;;;;;;;;;;;;;;;5059608;28;19917;-67
2022/01/14 09:06:43;;;;;;;;;;;;;;;;;;5044251;28;19912;-67
2022/01/14 09:09:09;;;;;;;;;;;;;;;;;;5052456;28;19925;-67
2022/01/14 09:11:34;;;;;;;;;;;;;;;;;;5057553;28;19915;-67
2022/01/14 09:13:59;;;;;;;;;;;;;;;;;;5051592;28;19919;-67
2022/01/14 09:16:24;;;;;;;;;;;;;;;;;;5045506;28;19927;-67
2022/01/14 09:18:49;;;;;;;;;;;;;;;;;;5054890;28;20003;-67
2022/01/14 09:21:14;;;;;;;;;;;;;;;;;;5053896;28;19959;-67
2022/01/14 09:23:39;;;;;;;;;;;;;;;;;;5057890;28;19912;-67
2022/01/14 09:26:04;;;;;;;;;;;;;;;;;;5044518;28;19909;-67
2022/01/14 09:28:30;;;;;;;;;;;;;;;;;;5046359;28;20579;-67
2022/01/14 09:30:56;;;;;;;;;;;;;;;;;;5053955;28;19943;-67
2022/01/14 09:33:21;;;;;;;;;;;;;;;;;;5052513;28;19978;-67
2022/01/14 09:35:46;;;;;;;;;;;;;;;;;;5046944;28;19909;-67
2022/01/14 09:38:11;;;;;;;;;;;;;;;;;;5046571;28;19916;-67
2022/01/14 09:40:37;;;;;;;;;;;;;;;;;;5049739;28;19908;-67
2022/01/14 09:43:02;;;;;;;;;;;;;;;;;;5053240;28;19909;-67
2022/01/14 09:45:28;;;;;;;;;;;;;;;;;;5055717;28;19913;-67
2022/01/14 09:47:53;;;;;;;;;;;;;;;;;;5046517;28;19935;-67
2022/01/14 09:50:18;;;;;;;;;;;;;;;;;;5053091;28;20019;-67
2022/01/14 09:52:45;;;;;;;;;;;;;;;;;;5047844;28;19913;-67
2022/01/14 09:55:10;;;;;;;;;;;;;;;;;;5050758;28;19923;-67
2022/01/14 09:57:36;;;;;;;;;;;;;;;;;;5052877;28;19909;-67
2022/01/14 10:00:02;;;;;;;;;;;;;;;;;;5056873;28;20023;-67
2022/01/14 10:02:27;;;;;;;;;;;;;;;;;;5045459;28;19970;-67
2022/01/14 10:04:52;;;;;;;;;;;;;;;;;;5051678;28;19925;-67
2022/01/14 10:07:17;;;;;;;;;;;;;;;;;;5052822;28;19947;-67
2022/01/14 10:09:47;;;;;;;;;;;;;;;;;;5051333;28;19928;-67
2022/01/14 10:12:20;;;;;;;;;;;;;;;;;;5047047;28;19916;-67
2022/01/14 10:14:45;;;;;;;;;;;;;;;;;;5048253;28;20581;-67
2022/01/14 10:17:10;;;;;;;;;;;;;;;;;;5052872;28;20337;-67
2022/01/14 10:19:35;;;;;;;;;;;;;;;;;;5057011;28;20670;-67
2022/01/14 10:22:00;;;;;;;;;;;;;;;;;;5055145;28;19991;-67
2022/01/14 10:24:25;;;;;;;;;;;;;;;;;;5047987;28;19912;-67
2022/01/14 10:26:51;;;;;;;;;;;;;;;;;;5045780;28;19912;-67
2022/01/14 10:29:16;;;;;;;;;;;;;;;;;;5059865;28;20554;-67
2022/01/14 10:31:43;;;;;;;;;;;;;;;;;;5057897;28;19917;-67
2022/01/14 10:34:08;;;;;;;;;;;;;;;;;;5060664;28;19923;-67
2022/01/14 10:36:33;;;;;;;;;;;;;;;;;;5049259;28;19916;-67
2022/01/14 10:38:59;;;;;;;;;;;;;;;;;;5049637;28;19932;-67
2022/01/14 10:41:24;;;;;;;;;;;;;;;;;;5055769;28;19920;-67
2022/01/14 10:43:49;;;;;;;;;;;;;;;;;;5052261;28;19916;-67
2022/01/14 10:46:14;;;;;;;;;;;;;;;;;;5051232;28;20380;-67
2022/01/14 10:48:39;;;;;;;;;;;;;;;;;;5048515;28;19916;-67
2022/01/14 10:51:04;;;;;;;;;;;;;;;;;;5061963;28;19962;-67
2022/01/14 10:53:30;;;;;;;;;;;;;;;;;;5053605;28;19912;-67
2022/01/14 10:55:55;;;;;;;;;;;;;;;;;;5051122;28;19916;-67
2022/01/14 10:58:20;;;;;;;;;;;;;;;;;;5051209;28;20003;-67
2022/01/14 11:00:45;;;;;;;;;;;;;;;;;;5050443;28;19952;-67
2022/01/14 11:03:10;;;;;;;;;;;;;;;;;;5052814;28;19928;-67
2022/01/14 11:05:35;;;;;;;;;;;;;;;;;;5059843;28;19952;-67
2022/01/14 11:08:00;;;;;;;;;;;;;;;;;;5049934;28;20425;-67
2022/01/14 11:10:32;;;;;;;;;;;;;;;;;;5051162;28;20204;-67
2022/01/14 11:12:57;;;;;;;;;;;;;;;;;;5047462;28;20349;-67
2022/01/14 11:15:23;;;;;;;;;;;;;;;;;;5046816;28;20016;-67
2022/01/14 11:17:53;;;;;;;;;;;;;;;;;;5052674;28;19908;-67
2022/01/14 11:20:29;;;;;;;;;;;;;;;;;;5060318;28;19912;-69
2022/01/14 11:25:39;;;;;;;;;;;;;;;;;;5043053;28;19970;-67
2022/01/14 11:28:04;;;;;;;;;;;;;;;;;;5042208;28;19917;-67
2022/01/14 11:30:29;;;;;;;;;;;;;;;;;;5051549;28;19913;-67
2022/01/14 11:32:54;;;;;;;;;;;;;;;;;;5050635;28;19916;-67
2022/01/14 11:35:19;;;;;;;;;;;;;;;;;;5050295;28;19917;-67
2022/01/14 11:37:46;;;;;;;;;;;;;;;;;;5047247;28;19908;-67
2022/01/14 11:40:12;;;;;;;;;;;;;;;;;;5060412;28;20360;-67
2022/01/14 11:42:37;;;;;;;;;;;;;;;;;;5043996;28;19909;-67
2022/01/14 11:45:05;;;;;;;;;;;;;;;;;;5059241;28;19936;-67
2022/01/14 11:47:38;;;;;;;;;;;;;;;;;;5053723;28;20388;-67
2022/01/14 11:50:05;;;;;;;;;;;;;;;;;;5055018;28;19920;-67
2022/01/14 11:52:30;;;;;;;;;;;;;;;;;;5048652;28;19964;-67
2022/01/14 11:54:55;;;;;;;;;;;;;;;;;;5050933;28;19959;-67
2022/01/14 11:57:20;;;;;;;;;;;;;;;;;;5055722;28;20559;-67
2022/01/14 11:59:45;;;;;;;;;;;;;;;;;;5053816;28;20000;-67
2022/01/14 12:02:10;;;;;;;;;;;;;;;;;;5042367;28;19960;-67
2022/01/14 12:04:35;;;;;;;;;;;;;;;;;;5053804;28;19967;-67
2022/01/14 12:07:00;;;;;;;;;;;;;;;;;;5059253;28;19909;-67
2022/01/14 12:09:32;;;;;;;;;;;;;;;;;;5055392;28;19936;-67
2022/01/14 12:11:58;;;;;;;;;;;;;;;;;;5046378;28;20153;-67
2022/01/14 12:14:23;;;;;;;;;;;;;;;;;;5049529;28;20352;-67
2022/01/14 12:16:50;;;;;;;;;;;;;;;;;;5058667;28;20530;-67
2022/01/14 12:19:16;;;;;;;;;;;;;;;;;;5060036;28;20003;-67
2022/01/14 12:21:42;;;;;;;;;;;;;;;;;;5059307;28;19912;-67
2022/01/14 12:24:07;;;;;;;;;;;;;;;;;;5047682;28;19928;-67
2022/01/14 12:26:32;;;;;;;;;;;;;;;;;;5045945;28;20389;-67
2022/01/14 12:28:57;;;;;;;;;;;;;;;;;;5062502;28;20470;-67
2022/01/14 12:31:22;;;;;;;;;;;;;;;;;;5049344;28;20297;-67
2022/01/14 12:33:50;;;;;;;;;;;;;;;;;;5057556;28;20367;-67
2022/01/14 12:36:15;;;;;;;;;;;;;;;;;;5046769;28;19913;-67
2022/01/14 12:38:40;;;;;;;;;;;;;;;;;;5046496;28;19917;-67
2022/01/14 12:41:05;;;;;;;;;;;;;;;;;;5062687;28;19908;-67
2022/01/14 12:43:31;;;;;;;;;;;;;;;;;;5055273;28;19919;-67
2022/01/14 12:46:12;;;;;;;;;;;;;;;;;;5053702;28;19943;-67
2022/01/14 12:48:46;;;;;;;;;;;;;;;;;;5050393;28;19913;-67
2022/01/14 12:51:11;;;;;;;;;;;;;;;;;;5057676;28;19947;-67
2022/01/14 12:53:36;;;;;;;;;;;;;;;;;;5052566;28;19913;-67
2022/01/14 12:56:01;;;;;;;;;;;;;;;;;;5053748;28;19919;-67
2022/01/14 12:58:27;;;;;;;;;;;;;;;;;;5050660;28;20090;-67
2022/01/14 13:00:52;;;;;;;;;;;;;;;;;;5048171;28;19942;-67
2022/01/14 13:03:17;;;;;;;;;;;;;;;;;;5053861;28;19936;-67
2022/01/14 13:05:42;;;;;;;;;;;;;;;;;;5056387;28;19913;-67
2022/01/14 13:08:07;;;;;;;;;;;;;;;;;;5049747;28;19912;-67
2022/01/14 13:10:33;;;;;;;;;;;;;;;;;;5051110;28;19920;-67
2022/01/14 13:12:58;;;;;;;;;;;;;;;;;;5046089;28;19912;-67
2022/01/14 13:15:23;;;;;;;;;;;;;;;;;;5062044;28;20483;-67
2022/01/14 13:18:00;;;;;;;;;;;;;;;;;;5050091;28;19912;-67
2022/01/14 13:20:25;;;;;;;;;;;;;;;;;;5050372;28;19912;-67
2022/01/14 13:22:50;;;;;;;;;;;;;;;;;;5043640;28;19915;-67
2022/01/14 13:25:16;;;;;;;;;;;;;;;;;;5052847;28;19997;-67
2022/01/14 13:27:42;;;;;;;;;;;;;;;;;;5046973;28;19914;-67
2022/01/14 13:30:07;;;;;;;;;;;;;;;;;;5051307;28;19916;-67
2022/01/14 13:32:32;;;;;;;;;;;;;;;;;;5044968;28;19933;-67
2022/01/14 13:34:57;;;;;;;;;;;;;;;;;;5045041;28;19932;-67
2022/01/14 13:37:22;;;;;;;;;;;;;;;;;;5049039;28;19970;-67
2022/01/14 13:39:48;;;;;;;;;;;;;;;;;;5062281;28;19966;-67
2022/01/14 13:42:13;;;;;;;;;;;;;;;;;;5045434;28;20693;-67
2022/01/14 13:44:38;;;;;;;;;;;;;;;;;;5060505;28;20340;-67
2022/01/14 13:47:07;;;;;;;;;;;;;;;;;;5052160;28;20301;-67
2022/01/14 13:49:32;;;;;;;;;;;;;;;;;;5052076;28;19963;-67
2022/01/14 13:51:57;;;;;;;;;;;;;;;;;;5054810;28;19932;-67
2022/01/14 13:54:22;;;;;;;;;;;;;;;;;;5057150;28;20480;-67
2022/01/14 13:56:50;;;;;;;;;;;;;;;;;;5046427;28;20268;-67
2022/01/14 13:59:15;;;;;;;;;;;;;;;;;;5049138;28;19920;-67
2022/01/14 14:01:40;;;;;;;;;;;;;;;;;;5042568;28;19909;-67
2022/01/14 14:04:25;;;;;;;;;;;;;;;;;;5055087;28;20032;-67
2022/01/14 14:06:56;;;;;;;;;;;;;;;;;;5047614;28;20059;-67
2022/01/14 14:09:30;;;;;;;;;;;;;;;;;;5049594;28;19921;-67
2022/01/14 14:12:09;;;;;;;;;;;;;;;;;;5043607;28;19909;-67
2022/01/14 14:17:18;;;;;;;;;;;;;;;;;;5047981;28;19924;-67
2022/01/14 14:19:43;;;;;;;;;;;;;;;;;;5053794;28;19916;-67
2022/01/14 14:22:08;;;;;;;;;;;;;;;;;;5044330;28;20328;-67
2022/01/14 14:24:33;;;;;;;;;;;;;;;;;;5054816;28;19974;-67
2022/01/14 14:26:58;;;;;;;;;;;;;;;;;;5053850;28;19980;-67
2022/01/14 14:29:24;;;;;;;;;;;;;;;;;;5048344;28;19943;-67
2022/01/14 14:31:49;;;;;;;;;;;;;;;;;;5051322;28;20380;-67
2022/01/14 14:34:14;;;;;;;;;;;;;;;;;;5050028;28;20022;-70
2022/01/14 14:36:40;;;;;;;;;;;;;;;;;;5053856;28;19917;-67
2022/01/14 14:39:05;;;;;;;;;;;;;;;;;;5055570;28;19912;-67
2022/01/14 14:41:30;;;;;;;;;;;;;;;;;;5060723;28;19908;-67
2022/01/14 14:43:56;;;;;;;;;;;;;;;;;;5052742;28;20572;-67
2022/01/14 14:46:21;;;;;;;;;;;;;;;;;;5048226;28;19913;-67
2022/01/14 14:48:46;;;;;;;;;;;;;;;;;;5054659;28;19912;-67
2022/01/14 14:51:12;;;;;;;;;;;;;;;;;;5049395;28;19913;-67
2022/01/14 14:53:37;;;;;;;;;;;;;;;;;;5052351;28;19999;-68
2022/01/14 14:56:02;;;;;;;;;;;;;;;;;;5052806;28;19956;-67
2022/01/14 14:58:27;;;;;;;;;;;;;;;;;;5049121;28;19913;-67
2022/01/14 15:00:53;;;;;;;;;;;;;;;;;;5049671;28;20002;-67
2022/01/14 15:03:18;;;;;;;;;;;;;;;;;;5048059;28;19981;-67
2022/01/14 15:05:43;;;;;;;;;;;;;;;;;;5050774;28;20011;-67
2022/01/14 15:08:08;;;;;;;;;;;;;;;;;;5055845;28;19974;-67
2022/01/14 15:10:33;;;;;;;;;;;;;;;;;;5052431;28;19933;-67
2022/01/14 15:12:59;;;;;;;;;;;;;;;;;;5054022;28;20553;-67
2022/01/14 15:20:32;;;;;;;;;;;;;;;;;;5055350;28;20020;-67
2022/01/14 15:22:57;;;;;;;;;;;;;;;;;;5050700;28;20003;-67
2022/01/14 15:25:22;;;;;;;;;;;;;;;;;;5043253;28;19924;-67
2022/01/14 15:27:48;;;;;;;;;;;;;;;;;;5041577;28;20324;-67
2022/01/14 15:30:13;;;;;;;;;;;;;;;;;;5053294;28;20763;-67
2022/01/14 15:32:38;;;;;;;;;;;;;;;;;;5052569;28;19913;-67
2022/01/14 15:35:03;;;;;;;;;;;;;;;;;;5047334;28;19929;-67
2022/01/14 15:37:28;;;;;;;;;;;;;;;;;;5048577;28;19919;-67
2022/01/14 15:39:53;;;;;;;;;;;;;;;;;;5052862;28;19916;-67
2022/01/14 15:42:18;;;;;;;;;;;;;;;;;;5051480;28;20274;-67
2022/01/14 15:44:43;;;;;;;;;;;;;;;;;;5054106;28;20462;-67
2022/01/14 15:47:09;;;;;;;;;;;;;;;;;;5059701;28;19978;-67
2022/01/14 15:49:34;;;;;;;;;;;;;;;;;;5056367;28;20505;-67
2022/01/14 15:51:59;;;;;;;;;;;;;;;;;;5051645;28;20613;-67
2022/01/14 15:54:24;;;;;;;;;;;;;;;;;;5056035;28;20015;-67
2022/01/14 15:56:49;;;;;;;;;;;;;;;;;;5049898;28;19917;-67
2022/01/14 15:59:14;;;;;;;;;;;;;;;;;;5059968;28;19922;-67
2022/01/14 16:01:40;;;;;;;;;;;;;;;;;;5056115;28;20031;-67
2022/01/14 16:04:05;;;;;;;;;;;;;;;;;;5058139;28;19920;-67
2022/01/14 16:06:30;;;;;;;;;;;;;;;;;;5059135;28;19917;-67
2022/01/14 16:08:55;;;;;;;;;;;;;;;;;;5058217;28;19935;-67
2022/01/14 16:11:22;;;;;;;;;;;;;;;;;;5071649;28;20319;-67
2022/01/14 16:13:51;;;;;;;;;;;;;;;;;;5061495;28;19916;-67
2022/01/14 16:16:16;;;;;;;;;;;;;;;;;;5062169;28;20046;-67
2022/01/14 16:18:41;;;;;;;;;;;;;;;;;;5061929;28;19995;-67
2022/01/14 16:21:06;;;;;;;;;;;;;;;;;;5059880;28;19916;-67
2022/01/14 16:23:31;;;;;;;;;;;;;;;;;;5059323;28;19916;-67
2022/01/14 16:25:58;;;;;;;;;;;;;;;;;;5061112;28;19921;-67
2022/01/14 16:28:24;;;;;;;;;;;;;;;;;;5060828;28;20332;-67
2022/01/14 16:30:54;;;;;;;;;;;;;;;;;;5065728;28;19920;-67
2022/01/14 16:33:19;;;;;;;;;;;;;;;;;;5061921;28;20439;-67
2022/01/14 16:35:44;;;;;;;;;;;;;;;;;;5059778;28;20410;-67
2022/01/14 16:38:09;;;;;;;;;;;;;;;;;;5061386;28;19923;-67
2022/01/14 16:40:34;;;;;;;;;;;;;;;;;;5061328;28;20107;-67
2022/01/14 16:43:00;;;;;;;;;;;;;;;;;;5060976;28;19916;-67
2022/01/14 16:45:25;;;;;;;;;;;;;;;;;;5061527;28;19912;-67
2022/01/14 16:47:50;;;;;;;;;;;;;;;;;;5063255;28;19958;-67
2022/01/14 16:50:15;;;;;;;;;;;;;;;;;;5069667;28;19927;-67
2022/01/14 16:52:40;;;;;;;;;;;;;;;;;;5081768;28;20265;-67
2022/01/14 16:55:06;;;;;;;;;;;;;;;;;;5068871;28;19916;-67
2022/01/14 16:57:31;;;;;;;;;;;;;;;;;;5065425;28;19995;-67
2022/01/14 16:59:56;;;;;;;;;;;;;;;;;;5064426;28;19942;-67
2022/01/14 17:02:21;;;;;;;;;;;;;;;;;;5060757;28;20361;-67
2022/01/14 17:04:47;;;;;;;;;;;;;;;;;;5060591;28;19923;-67
2022/01/14 17:07:12;;;;;;;;;;;;;;;;;;5061185;28;19966;-67
2022/01/14 17:09:37;;;;;;;;;;;;;;;;;;5060686;28;19920;-67